Brusly, Louisiana
Current Conditions -  °F | °C
As of 6:53 AM on Tuesday 21 Oct 2014 (Local Time) from KBTR Reporting Station
Clear Clear  
Wind Chill: 55°   Ceiling: Unl
Heat Index: 55°   Visibility: 10mi
Dew Point: 51°   Wind: 5mph
Humidity: 86%   Direction: 30°NNE
Pressure: 30.05"   Gusts: NA
Location:  30.39°N, 91.25°W
Report Text: KBTR 211153Z 03004KT 10SM CLR 13/11 A3005 RMK AO2 SLP174 7//// T01280106 10144 20128 51012
Loading
Personal Weather Stations






























Interactive Weather Map
Tropical Storm Tracking
New forecast layout! Learn more

10-Day Weather Forecast

Advertisements
Track Severe Weather on mobile